sensor_id;sensor_type;location;lat;lon;timestamp;temperature;humidity
14884;DHT22;7534;50.762;7.000;2023-04-06T00:02:05;2.80;99.30
14884;DHT22;7534;50.762;7.000;2023-04-06T00:04:31;2.80;99.40
14884;DHT22;7534;50.762;7.000;2023-04-06T00:06:56;2.80;99.10
14884;DHT22;7534;50.762;7.000;2023-04-06T00:09:22;2.60;98.90
14884;DHT22;7534;50.762;7.000;2023-04-06T00:11:48;2.60;99.20
14884;DHT22;7534;50.762;7.000;2023-04-06T00:14:13;2.50;99.40
14884;DHT22;7534;50.762;7.000;2023-04-06T00:16:39;2.50;99.40
14884;DHT22;7534;50.762;7.000;2023-04-06T00:19:05;2.60;99.00
14884;DHT22;7534;50.762;7.000;2023-04-06T00:21:30;2.60;98.90
14884;DHT22;7534;50.762;7.000;2023-04-06T00:23:57;2.40;99.20
14884;DHT22;7534;50.762;7.000;2023-04-06T00:26:23;2.60;99.30
14884;DHT22;7534;50.762;7.000;2023-04-06T00:28:49;2.60;99.10
14884;DHT22;7534;50.762;7.000;2023-04-06T00:31:17;2.60;99.00
14884;DHT22;7534;50.762;7.000;2023-04-06T00:33:42;2.60;99.20
14884;DHT22;7534;50.762;7.000;2023-04-06T00:36:08;2.60;99.30
14884;DHT22;7534;50.762;7.000;2023-04-06T00:38:35;2.60;99.10
14884;DHT22;7534;50.762;7.000;2023-04-06T00:41:01;2.70;99.00
14884;DHT22;7534;50.762;7.000;2023-04-06T00:43:28;2.60;98.90
14884;DHT22;7534;50.762;7.000;2023-04-06T00:45:54;2.60;99.10
14884;DHT22;7534;50.762;7.000;2023-04-06T00:48:20;2.50;99.20
14884;DHT22;7534;50.762;7.000;2023-04-06T00:50:45;2.40;99.40
14884;DHT22;7534;50.762;7.000;2023-04-06T00:53:11;2.40;99.40
14884;DHT22;7534;50.762;7.000;2023-04-06T00:55:38;2.40;99.40
14884;DHT22;7534;50.762;7.000;2023-04-06T00:58:04;2.40;99.50
14884;DHT22;7534;50.762;7.000;2023-04-06T01:00:32;2.30;99.50
14884;DHT22;7534;50.762;7.000;2023-04-06T01:02:58;2.30;99.90
14884;DHT22;7534;50.762;7.000;2023-04-06T01:05:23;2.30;99.70
14884;DHT22;7534;50.762;7.000;2023-04-06T01:07:49;2.20;99.70
14884;DHT22;7534;50.762;7.000;2023-04-06T01:10:25;2.10;99.70
14884;DHT22;7534;50.762;7.000;2023-04-06T01:12:52;2.10;99.90
14884;DHT22;7534;50.762;7.000;2023-04-06T01:15:17;2.00;99.90
14884;DHT22;7534;50.762;7.000;2023-04-06T01:17:43;2.00;99.90
14884;DHT22;7534;50.762;7.000;2023-04-06T01:20:10;2.00;99.90
14884;DHT22;7534;50.762;7.000;2023-04-06T01:22:35;1.90;99.90
14884;DHT22;7534;50.762;7.000;2023-04-06T01:25:01;1.90;99.90
14884;DHT22;7534;50.762;7.000;2023-04-06T01:27:26;1.80;99.90
14884;DHT22;7534;50.762;7.000;2023-04-06T01:29:53;1.80;99.90
14884;DHT22;7534;50.762;7.000;2023-04-06T01:32:19;1.80;99.90
14884;DHT22;7534;50.762;7.000;2023-04-06T01:34:45;1.70;99.90
14884;DHT22;7534;50.762;7.000;2023-04-06T01:37:11;1.70;99.90
14884;DHT22;7534;50.762;7.000;2023-04-06T01:39:37;1.70;99.90
14884;DHT22;7534;50.762;7.000;2023-04-06T01:42:03;1.60;99.90
14884;DHT22;7534;50.762;7.000;2023-04-06T01:44:28;1.60;99.90
14884;DHT22;7534;50.762;7.000;2023-04-06T01:46:56;1.60;99.90
14884;DHT22;7534;50.762;7.000;2023-04-06T01:49:22;1.50;99.90
14884;DHT22;7534;50.762;7.000;2023-04-06T01:51:47;1.50;99.90
14884;DHT22;7534;50.762;7.000;2023-04-06T01:54:13;1.50;99.90
14884;DHT22;7534;50.762;7.000;2023-04-06T01:56:39;1.40;99.90
14884;DHT22;7534;50.762;7.000;2023-04-06T01:59:05;1.40;99.90
14884;DHT22;7534;50.762;7.000;2023-04-06T02:01:32;1.30;99.90
14884;DHT22;7534;50.762;7.000;2023-04-06T02:03:57;1.30;99.90
14884;DHT22;7534;50.762;7.000;2023-04-06T02:06:23;1.30;99.90
14884;DHT22;7534;50.762;7.000;2023-04-06T02:08:48;1.30;99.90
14884;DHT22;7534;50.762;7.000;2023-04-06T02:11:15;1.20;99.90
14884;DHT22;7534;50.762;7.000;2023-04-06T02:13:40;1.20;99.90
14884;DHT22;7534;50.762;7.000;2023-04-06T02:16:06;1.20;99.90
14884;DHT22;7534;50.762;7.000;2023-04-06T02:18:32;1.20;99.90
14884;DHT22;7534;50.762;7.000;2023-04-06T02:20:57;1.20;99.90
14884;DHT22;7534;50.762;7.000;2023-04-06T02:23:23;1.10;99.90
14884;DHT22;7534;50.762;7.000;2023-04-06T02:25:49;1.10;99.90
14884;DHT22;7534;50.762;7.000;2023-04-06T02:28:14;1.10;99.90
14884;DHT22;7534;50.762;7.000;2023-04-06T02:30:40;1.10;99.90
14884;DHT22;7534;50.762;7.000;2023-04-06T02:33:06;1.10;99.90
14884;DHT22;7534;50.762;7.000;2023-04-06T02:35:32;1.10;99.90
14884;DHT22;7534;50.762;7.000;2023-04-06T02:37:57;1.10;99.90
14884;DHT22;7534;50.762;7.000;2023-04-06T02:40:23;1.10;99.90
14884;DHT22;7534;50.762;7.000;2023-04-06T02:42:48;1.00;99.90
14884;DHT22;7534;50.762;7.000;2023-04-06T02:45:14;1.00;99.90
14884;DHT22;7534;50.762;7.000;2023-04-06T02:47:40;1.00;99.90
14884;DHT22;7534;50.762;7.000;2023-04-06T02:50:06;0.90;99.90
14884;DHT22;7534;50.762;7.000;2023-04-06T02:52:32;0.90;99.90
14884;DHT22;7534;50.762;7.000;2023-04-06T02:54:57;0.90;99.90
14884;DHT22;7534;50.762;7.000;2023-04-06T02:57:23;0.90;99.90
14884;DHT22;7534;50.762;7.000;2023-04-06T02:59:49;0.90;99.90
14884;DHT22;7534;50.762;7.000;2023-04-06T03:02:15;0.90;99.90
14884;DHT22;7534;50.762;7.000;2023-04-06T03:04:40;0.90;99.90
14884;DHT22;7534;50.762;7.000;2023-04-06T03:07:07;0.80;99.90
14884;DHT22;7534;50.762;7.000;2023-04-06T03:09:32;0.80;99.90
14884;DHT22;7534;50.762;7.000;2023-04-06T03:11:58;0.80;99.90
14884;DHT22;7534;50.762;7.000;2023-04-06T03:14:25;0.80;99.90
14884;DHT22;7534;50.762;7.000;2023-04-06T03:16:50;0.70;99.90
14884;DHT22;7534;50.762;7.000;2023-04-06T03:19:16;0.70;99.90
14884;DHT22;7534;50.762;7.000;2023-04-06T03:21:42;0.70;99.90
14884;DHT22;7534;50.762;7.000;2023-04-06T03:24:07;0.70;99.90
14884;DHT22;7534;50.762;7.000;2023-04-06T03:26:33;0.70;99.90
14884;DHT22;7534;50.762;7.000;2023-04-06T03:28:59;0.70;99.90
14884;DHT22;7534;50.762;7.000;2023-04-06T03:31:26;0.60;99.90
14884;DHT22;7534;50.762;7.000;2023-04-06T03:33:52;0.60;99.90
14884;DHT22;7534;50.762;7.000;2023-04-06T03:36:18;0.60;99.90
14884;DHT22;7534;50.762;7.000;2023-04-06T03:38:43;0.60;99.90
14884;DHT22;7534;50.762;7.000;2023-04-06T03:41:09;0.50;99.90
14884;DHT22;7534;50.762;7.000;2023-04-06T03:43:35;0.50;99.90
14884;DHT22;7534;50.762;7.000;2023-04-06T03:46:01;0.60;99.90
14884;DHT22;7534;50.762;7.000;2023-04-06T03:48:26;0.60;99.90
14884;DHT22;7534;50.762;7.000;2023-04-06T03:50:52;0.60;99.90
14884;DHT22;7534;50.762;7.000;2023-04-06T03:53:17;0.60;99.90
14884;DHT22;7534;50.762;7.000;2023-04-06T03:55:43;0.60;99.90
14884;DHT22;7534;50.762;7.000;2023-04-06T03:58:09;0.60;99.90
14884;DHT22;7534;50.762;7.000;2023-04-06T04:00:36;0.50;99.90
14884;DHT22;7534;50.762;7.000;2023-04-06T04:03:01;0.40;99.90
14884;DHT22;7534;50.762;7.000;2023-04-06T04:05:28;0.40;99.90
14884;DHT22;7534;50.762;7.000;2023-04-06T04:07:54;0.40;99.90
14884;DHT22;7534;50.762;7.000;2023-04-06T04:10:20;0.40;99.90
14884;DHT22;7534;50.762;7.000;2023-04-06T04:12:46;0.40;99.90
14884;DHT22;7534;50.762;7.000;2023-04-06T04:15:12;0.40;99.90
14884;DHT22;7534;50.762;7.000;2023-04-06T04:17:37;0.40;99.90
14884;DHT22;7534;50.762;7.000;2023-04-06T04:20:03;0.40;99.90
14884;DHT22;7534;50.762;7.000;2023-04-06T04:22:29;0.30;99.90
14884;DHT22;7534;50.762;7.000;2023-04-06T04:24:55;0.30;99.90
14884;DHT22;7534;50.762;7.000;2023-04-06T04:27:20;0.30;99.90
14884;DHT22;7534;50.762;7.000;2023-04-06T04:29:47;0.30;99.90
14884;DHT22;7534;50.762;7.000;2023-04-06T04:32:12;0.30;99.90
14884;DHT22;7534;50.762;7.000;2023-04-06T04:34:38;0.30;99.90
14884;DHT22;7534;50.762;7.000;2023-04-06T04:37:06;0.30;99.90
14884;DHT22;7534;50.762;7.000;2023-04-06T04:39:32;0.30;99.90
14884;DHT22;7534;50.762;7.000;2023-04-06T04:41:57;0.30;99.90
14884;DHT22;7534;50.762;7.000;2023-04-06T04:44:23;0.30;99.90
14884;DHT22;7534;50.762;7.000;2023-04-06T04:46:49;0.30;99.90
14884;DHT22;7534;50.762;7.000;2023-04-06T04:49:17;0.30;99.90
14884;DHT22;7534;50.762;7.000;2023-04-06T04:51:43;0.40;99.90
14884;DHT22;7534;50.762;7.000;2023-04-06T04:54:08;0.50;99.90
14884;DHT22;7534;50.762;7.000;2023-04-06T04:56:34;0.60;99.90
14884;DHT22;7534;50.762;7.000;2023-04-06T04:59:00;0.60;99.90
14884;DHT22;7534;50.762;7.000;2023-04-06T05:01:26;0.70;99.90
14884;DHT22;7534;50.762;7.000;2023-04-06T05:03:51;0.70;99.90
14884;DHT22;7534;50.762;7.000;2023-04-06T05:06:17;0.70;99.90
14884;DHT22;7534;50.762;7.000;2023-04-06T05:08:44;0.80;99.90
14884;DHT22;7534;50.762;7.000;2023-04-06T05:11:10;1.00;99.90
14884;DHT22;7534;50.762;7.000;2023-04-06T05:13:36;1.10;99.90
14884;DHT22;7534;50.762;7.000;2023-04-06T05:16:01;1.20;99.90
14884;DHT22;7534;50.762;7.000;2023-04-06T05:18:27;1.20;99.90
14884;DHT22;7534;50.762;7.000;2023-04-06T05:20:53;1.40;99.90
14884;DHT22;7534;50.762;7.000;2023-04-06T05:23:18;1.30;99.90
14884;DHT22;7534;50.762;7.000;2023-04-06T05:25:44;1.40;99.90
14884;DHT22;7534;50.762;7.000;2023-04-06T05:28:10;1.50;99.90
14884;DHT22;7534;50.762;7.000;2023-04-06T05:30:36;1.60;99.90
14884;DHT22;7534;50.762;7.000;2023-04-06T05:33:02;1.80;99.90
14884;DHT22;7534;50.762;7.000;2023-04-06T05:35:27;1.90;99.90
14884;DHT22;7534;50.762;7.000;2023-04-06T05:37:53;2.10;99.90
14884;DHT22;7534;50.762;7.000;2023-04-06T05:40:19;2.20;99.90
14884;DHT22;7534;50.762;7.000;2023-04-06T05:42:44;2.40;99.60
14884;DHT22;7534;50.762;7.000;2023-04-06T05:45:11;2.50;98.90
14884;DHT22;7534;50.762;7.000;2023-04-06T05:47:42;2.60;98.80
14884;DHT22;7534;50.762;7.000;2023-04-06T05:50:11;2.80;98.50
14884;DHT22;7534;50.762;7.000;2023-04-06T05:52:38;3.00;98.30
14884;DHT22;7534;50.762;7.000;2023-04-06T05:55:04;3.20;98.00
14884;DHT22;7534;50.762;7.000;2023-04-06T05:57:30;3.30;97.60
14884;DHT22;7534;50.762;7.000;2023-04-06T05:59:55;3.50;97.20
14884;DHT22;7534;50.762;7.000;2023-04-06T06:02:21;3.80;96.70
14884;DHT22;7534;50.762;7.000;2023-04-06T06:04:47;4.20;96.30
14884;DHT22;7534;50.762;7.000;2023-04-06T06:07:13;4.50;95.40
14884;DHT22;7534;50.762;7.000;2023-04-06T06:09:39;4.80;94.90
14884;DHT22;7534;50.762;7.000;2023-04-06T06:12:05;5.10;94.00
14884;DHT22;7534;50.762;7.000;2023-04-06T06:14:31;5.30;93.30
14884;DHT22;7534;50.762;7.000;2023-04-06T06:16:56;5.50;92.80
14884;DHT22;7534;50.762;7.000;2023-04-06T06:19:22;6.00;93.10
14884;DHT22;7534;50.762;7.000;2023-04-06T06:21:48;6.20;92.10
14884;DHT22;7534;50.762;7.000;2023-04-06T06:24:13;6.20;91.80
14884;DHT22;7534;50.762;7.000;2023-04-06T06:26:39;6.30;91.90
14884;DHT22;7534;50.762;7.000;2023-04-06T06:29:05;6.70;91.10
14884;DHT22;7534;50.762;7.000;2023-04-06T06:31:32;7.10;91.30
14884;DHT22;7534;50.762;7.000;2023-04-06T06:33:57;7.90;90.20
14884;DHT22;7534;50.762;7.000;2023-04-06T06:36:23;8.90;90.00
14884;DHT22;7534;50.762;7.000;2023-04-06T06:38:49;10.10;81.80
14884;DHT22;7534;50.762;7.000;2023-04-06T06:41:15;10.70;77.70
14884;DHT22;7534;50.762;7.000;2023-04-06T06:43:41;11.40;74.50
14884;DHT22;7534;50.762;7.000;2023-04-06T06:46:06;12.30;73.40
14884;DHT22;7534;50.762;7.000;2023-04-06T06:48:33;13.40;71.60
14884;DHT22;7534;50.762;7.000;2023-04-06T06:50:59;13.90;64.30
14884;DHT22;7534;50.762;7.000;2023-04-06T06:53:24;13.90;60.90
14884;DHT22;7534;50.762;7.000;2023-04-06T06:55:50;14.30;59.00
14884;DHT22;7534;50.762;7.000;2023-04-06T06:58:18;14.60;58.50
14884;DHT22;7534;50.762;7.000;2023-04-06T07:00:47;14.90;57.50
14884;DHT22;7534;50.762;7.000;2023-04-06T07:03:12;14.50;56.20
14884;DHT22;7534;50.762;7.000;2023-04-06T07:05:38;14.90;55.90
14884;DHT22;7534;50.762;7.000;2023-04-06T07:08:04;15.40;54.40
14884;DHT22;7534;50.762;7.000;2023-04-06T07:10:30;15.90;52.20
14884;DHT22;7534;50.762;7.000;2023-04-06T07:12:56;16.60;50.10
14884;DHT22;7534;50.762;7.000;2023-04-06T07:15:22;17.00;48.00
14884;DHT22;7534;50.762;7.000;2023-04-06T07:17:48;17.10;46.80
14884;DHT22;7534;50.762;7.000;2023-04-06T07:20:14;17.10;46.10
14884;DHT22;7534;50.762;7.000;2023-04-06T07:22:42;16.40;47.80
14884;DHT22;7534;50.762;7.000;2023-04-06T07:25:09;17.20;47.40
14884;DHT22;7534;50.762;7.000;2023-04-06T07:27:34;18.60;44.00
14884;DHT22;7534;50.762;7.000;2023-04-06T07:30:00;18.90;41.70
14884;DHT22;7534;50.762;7.000;2023-04-06T07:32:26;19.70;40.10
14884;DHT22;7534;50.762;7.000;2023-04-06T07:34:51;19.50;38.90
14884;DHT22;7534;50.762;7.000;2023-04-06T07:37:17;19.30;39.20
14884;DHT22;7534;50.762;7.000;2023-04-06T07:39:43;19.80;39.10
14884;DHT22;7534;50.762;7.000;2023-04-06T07:42:08;20.00;37.50
14884;DHT22;7534;50.762;7.000;2023-04-06T07:44:34;20.00;37.10
14884;DHT22;7534;50.762;7.000;2023-04-06T07:47:00;19.80;37.50
14884;DHT22;7534;50.762;7.000;2023-04-06T07:49:27;18.90;38.00
14884;DHT22;7534;50.762;7.000;2023-04-06T07:51:52;18.70;39.10
14884;DHT22;7534;50.762;7.000;2023-04-06T07:54:18;19.00;39.70
14884;DHT22;7534;50.762;7.000;2023-04-06T07:56:44;19.20;38.40
14884;DHT22;7534;50.762;7.000;2023-04-06T07:59:10;19.10;38.20
14884;DHT22;7534;50.762;7.000;2023-04-06T08:01:36;18.50;38.70
14884;DHT22;7534;50.762;7.000;2023-04-06T08:04:02;18.30;40.00
14884;DHT22;7534;50.762;7.000;2023-04-06T08:06:28;17.90;40.20
14884;DHT22;7534;50.762;7.000;2023-04-06T08:08:56;18.40;40.10
14884;DHT22;7534;50.762;7.000;2023-04-06T08:11:22;18.80;39.60
14884;DHT22;7534;50.762;7.000;2023-04-06T08:13:48;19.50;39.30
14884;DHT22;7534;50.762;7.000;2023-04-06T08:16:13;20.10;37.70
14884;DHT22;7534;50.762;7.000;2023-04-06T08:18:40;20.70;36.90
14884;DHT22;7534;50.762;7.000;2023-04-06T08:21:06;21.60;35.80
14884;DHT22;7534;50.762;7.000;2023-04-06T08:23:31;22.10;34.10
14884;DHT22;7534;50.762;7.000;2023-04-06T08:25:57;22.20;33.80
14884;DHT22;7534;50.762;7.000;2023-04-06T08:28:22;22.30;33.40
14884;DHT22;7534;50.762;7.000;2023-04-06T08:30:48;21.90;33.60
14884;DHT22;7534;50.762;7.000;2023-04-06T08:33:14;21.70;33.70
14884;DHT22;7534;50.762;7.000;2023-04-06T08:35:40;21.60;34.00
14884;DHT22;7534;50.762;7.000;2023-04-06T08:38:06;22.10;33.90
14884;DHT22;7534;50.762;7.000;2023-04-06T08:40:37;22.40;33.00
14884;DHT22;7534;50.762;7.000;2023-04-06T08:43:09;22.40;33.50
14884;DHT22;7534;50.762;7.000;2023-04-06T08:45:40;21.90;33.70
14884;DHT22;7534;50.762;7.000;2023-04-06T08:48:07;21.40;34.40
14884;DHT22;7534;50.762;7.000;2023-04-06T08:50:33;21.20;34.70
14884;DHT22;7534;50.762;7.000;2023-04-06T08:53:01;21.00;35.70
14884;DHT22;7534;50.762;7.000;2023-04-06T08:55:27;21.20;36.00
14884;DHT22;7534;50.762;7.000;2023-04-06T08:57:54;21.80;35.40
14884;DHT22;7534;50.762;7.000;2023-04-06T09:00:21;22.30;34.70
14884;DHT22;7534;50.762;7.000;2023-04-06T09:02:49;22.90;33.90
14884;DHT22;7534;50.762;7.000;2023-04-06T09:05:18;21.90;34.30
14884;DHT22;7534;50.762;7.000;2023-04-06T09:07:44;20.90;34.70
14884;DHT22;7534;50.762;7.000;2023-04-06T09:10:10;21.00;35.50
14884;DHT22;7534;50.762;7.000;2023-04-06T09:12:36;20.70;36.10
14884;DHT22;7534;50.762;7.000;2023-04-06T09:15:02;20.30;37.50
14884;DHT22;7534;50.762;7.000;2023-04-06T09:17:30;19.90;37.40
14884;DHT22;7534;50.762;7.000;2023-04-06T09:20:00;20.30;37.80
14884;DHT22;7534;50.762;7.000;2023-04-06T09:22:37;20.80;37.50
14884;DHT22;7534;50.762;7.000;2023-04-06T09:25:05;20.50;37.30
14884;DHT22;7534;50.762;7.000;2023-04-06T09:27:40;20.30;38.80
14884;DHT22;7534;50.762;7.000;2023-04-06T09:30:08;19.90;38.90
14884;DHT22;7534;50.762;7.000;2023-04-06T09:32:49;20.20;39.70
14884;DHT22;7534;50.762;7.000;2023-04-06T09:35:16;21.00;38.50
14884;DHT22;7534;50.762;7.000;2023-04-06T09:37:46;20.80;37.10
14884;DHT22;7534;50.762;7.000;2023-04-06T09:40:13;21.20;36.40
14884;DHT22;7534;50.762;7.000;2023-04-06T09:42:45;22.00;36.60
14884;DHT22;7534;50.762;7.000;2023-04-06T09:45:13;22.50;34.70
14884;DHT22;7534;50.762;7.000;2023-04-06T09:47:40;22.70;33.70
14884;DHT22;7534;50.762;7.000;2023-04-06T09:50:11;22.00;33.10
14884;DHT22;7534;50.762;7.000;2023-04-06T09:52:41;21.40;35.80
14884;DHT22;7534;50.762;7.000;2023-04-06T09:55:12;21.70;35.60
14884;DHT22;7534;50.762;7.000;2023-04-06T09:57:57;21.60;35.10
14884;DHT22;7534;50.762;7.000;2023-04-06T10:00:32;21.30;36.80
14884;DHT22;7534;50.762;7.000;2023-04-06T10:03:20;21.70;35.80
14884;DHT22;7534;50.762;7.000;2023-04-06T10:06:01;22.10;35.30
14884;DHT22;7534;50.762;7.000;2023-04-06T10:08:32;20.70;35.30
14884;DHT22;7534;50.762;7.000;2023-04-06T10:11:01;21.20;37.50
14884;DHT22;7534;50.762;7.000;2023-04-06T10:13:27;21.80;35.70
14884;DHT22;7534;50.762;7.000;2023-04-06T10:15:54;21.90;34.80
14884;DHT22;7534;50.762;7.000;2023-04-06T10:18:21;21.20;34.90
14884;DHT22;7534;50.762;7.000;2023-04-06T10:20:54;20.80;35.60
14884;DHT22;7534;50.762;7.000;2023-04-06T10:23:49;21.10;37.30
14884;DHT22;7534;50.762;7.000;2023-04-06T10:26:20;20.60;35.50
14884;DHT22;7534;50.762;7.000;2023-04-06T10:28:48;20.00;35.10
14884;DHT22;7534;50.762;7.000;2023-04-06T10:31:15;20.00;36.50
14884;DHT22;7534;50.762;7.000;2023-04-06T10:34:15;19.70;37.90
14884;DHT22;7534;50.762;7.000;2023-04-06T10:36:41;19.00;38.20
14884;DHT22;7534;50.762;7.000;2023-04-06T10:39:07;18.30;40.00
14884;DHT22;7534;50.762;7.000;2023-04-06T10:41:33;18.10;41.00
14884;DHT22;7534;50.762;7.000;2023-04-06T10:44:01;17.80;40.80
14884;DHT22;7534;50.762;7.000;2023-04-06T10:46:29;17.90;40.30
14884;DHT22;7534;50.762;7.000;2023-04-06T10:48:56;18.10;38.70
14884;DHT22;7534;50.762;7.000;2023-04-06T10:51:27;18.60;38.90
14884;DHT22;7534;50.762;7.000;2023-04-06T10:53:55;19.10;38.10
14884;DHT22;7534;50.762;7.000;2023-04-06T10:56:24;19.10;39.20
14884;DHT22;7534;50.762;7.000;2023-04-06T10:58:54;18.80;38.60
14884;DHT22;7534;50.762;7.000;2023-04-06T11:01:24;18.50;39.40
14884;DHT22;7534;50.762;7.000;2023-04-06T11:04:02;18.50;40.50
14884;DHT22;7534;50.762;7.000;2023-04-06T11:06:29;18.90;39.70
14884;DHT22;7534;50.762;7.000;2023-04-06T11:08:57;19.20;39.80
14884;DHT22;7534;50.762;7.000;2023-04-06T11:11:25;19.00;39.70
14884;DHT22;7534;50.762;7.000;2023-04-06T11:14:00;18.60;40.20
14884;DHT22;7534;50.762;7.000;2023-04-06T11:16:31;18.40;39.70
14884;DHT22;7534;50.762;7.000;2023-04-06T11:18:58;18.20;39.40
14884;DHT22;7534;50.762;7.000;2023-04-06T11:21:41;18.30;40.00
14884;DHT22;7534;50.762;7.000;2023-04-06T11:26:50;18.30;38.50
14884;DHT22;7534;50.762;7.000;2023-04-06T11:29:24;18.30;41.10
14884;DHT22;7534;50.762;7.000;2023-04-06T11:31:53;17.70;41.20
14884;DHT22;7534;50.762;7.000;2023-04-06T11:34:24;17.80;40.50
14884;DHT22;7534;50.762;7.000;2023-04-06T11:36:58;17.90;41.70
14884;DHT22;7534;50.762;7.000;2023-04-06T11:39:27;17.60;42.70
14884;DHT22;7534;50.762;7.000;2023-04-06T11:41:57;17.60;43.00
14884;DHT22;7534;50.762;7.000;2023-04-06T11:44:35;17.90;43.50
14884;DHT22;7534;50.762;7.000;2023-04-06T11:47:09;18.20;43.80
14884;DHT22;7534;50.762;7.000;2023-04-06T11:49:40;18.50;42.20
14884;DHT22;7534;50.762;7.000;2023-04-06T11:52:26;18.40;42.30
14884;DHT22;7534;50.762;7.000;2023-04-06T11:54:54;18.60;42.80
14884;DHT22;7534;50.762;7.000;2023-04-06T11:57:22;19.00;42.30
14884;DHT22;7534;50.762;7.000;2023-04-06T11:59:51;19.40;43.10
14884;DHT22;7534;50.762;7.000;2023-04-06T12:02:18;19.60;40.60
14884;DHT22;7534;50.762;7.000;2023-04-06T12:04:45;19.20;40.30
14884;DHT22;7534;50.762;7.000;2023-04-06T12:07:11;19.10;40.70
14884;DHT22;7534;50.762;7.000;2023-04-06T12:09:37;19.00;41.30
14884;DHT22;7534;50.762;7.000;2023-04-06T12:12:04;18.20;41.70
14884;DHT22;7534;50.762;7.000;2023-04-06T12:14:29;18.20;42.90
14884;DHT22;7534;50.762;7.000;2023-04-06T12:16:58;18.20;43.00
14884;DHT22;7534;50.762;7.000;2023-04-06T12:19:24;18.30;41.30
14884;DHT22;7534;50.762;7.000;2023-04-06T12:21:54;18.40;40.10
14884;DHT22;7534;50.762;7.000;2023-04-06T12:24:20;18.70;41.20
14884;DHT22;7534;50.762;7.000;2023-04-06T12:26:46;18.40;40.30
14884;DHT22;7534;50.762;7.000;2023-04-06T12:29:12;17.90;39.70
14884;DHT22;7534;50.762;7.000;2023-04-06T12:31:38;17.60;41.70
14884;DHT22;7534;50.762;7.000;2023-04-06T12:34:06;17.60;42.00
14884;DHT22;7534;50.762;7.000;2023-04-06T12:36:32;18.00;42.00
14884;DHT22;7534;50.762;7.000;2023-04-06T12:38:59;18.60;42.80
14884;DHT22;7534;50.762;7.000;2023-04-06T12:41:26;19.20;40.60
14884;DHT22;7534;50.762;7.000;2023-04-06T12:43:52;19.60;39.20
14884;DHT22;7534;50.762;7.000;2023-04-06T12:46:18;19.50;39.30
14884;DHT22;7534;50.762;7.000;2023-04-06T12:48:44;19.00;38.60
14884;DHT22;7534;50.762;7.000;2023-04-06T12:51:10;19.00;39.40
14884;DHT22;7534;50.762;7.000;2023-04-06T12:53:36;18.80;39.50
14884;DHT22;7534;50.762;7.000;2023-04-06T12:56:09;18.60;40.60
14884;DHT22;7534;50.762;7.000;2023-04-06T12:58:37;18.30;41.70
14884;DHT22;7534;50.762;7.000;2023-04-06T13:01:06;17.90;42.60
14884;DHT22;7534;50.762;7.000;2023-04-06T13:03:34;17.70;42.80
14884;DHT22;7534;50.762;7.000;2023-04-06T13:06:00;17.30;43.80
14884;DHT22;7534;50.762;7.000;2023-04-06T13:08:27;17.10;44.10
14884;DHT22;7534;50.762;7.000;2023-04-06T13:10:53;17.00;45.10
14884;DHT22;7534;50.762;7.000;2023-04-06T13:13:24;17.00;45.80
14884;DHT22;7534;50.762;7.000;2023-04-06T13:15:52;17.00;46.30
14884;DHT22;7534;50.762;7.000;2023-04-06T13:18:19;17.10;47.60
14884;DHT22;7534;50.762;7.000;2023-04-06T13:20:47;16.90;46.00
14884;DHT22;7534;50.762;7.000;2023-04-06T13:23:13;16.70;46.20
14884;DHT22;7534;50.762;7.000;2023-04-06T13:25:39;16.50;47.70
14884;DHT22;7534;50.762;7.000;2023-04-06T13:28:07;16.50;48.80
14884;DHT22;7534;50.762;7.000;2023-04-06T13:30:33;16.10;50.10
14884;DHT22;7534;50.762;7.000;2023-04-06T13:32:59;15.90;51.40
14884;DHT22;7534;50.762;7.000;2023-04-06T13:35:25;16.00;52.50
14884;DHT22;7534;50.762;7.000;2023-04-06T13:37:50;16.20;53.40
14884;DHT22;7534;50.762;7.000;2023-04-06T13:40:17;16.00;54.90
14884;DHT22;7534;50.762;7.000;2023-04-06T13:42:44;15.40;56.60
14884;DHT22;7534;50.762;7.000;2023-04-06T13:45:11;15.00;58.80
14884;DHT22;7534;50.762;7.000;2023-04-06T13:47:37;14.70;60.60
14884;DHT22;7534;50.762;7.000;2023-04-06T13:50:03;14.60;61.60
14884;DHT22;7534;50.762;7.000;2023-04-06T13:52:29;14.60;63.40
14884;DHT22;7534;50.762;7.000;2023-04-06T13:54:55;14.80;63.50
14884;DHT22;7534;50.762;7.000;2023-04-06T13:57:21;15.10;64.10
14884;DHT22;7534;50.762;7.000;2023-04-06T13:59:47;15.50;65.90
14884;DHT22;7534;50.762;7.000;2023-04-06T14:02:15;15.60;67.00
14884;DHT22;7534;50.762;7.000;2023-04-06T14:04:41;15.60;67.80
14884;DHT22;7534;50.762;7.000;2023-04-06T14:07:06;15.30;66.70
14884;DHT22;7534;50.762;7.000;2023-04-06T14:09:33;15.10;67.70
14884;DHT22;7534;50.762;7.000;2023-04-06T14:11:59;15.40;68.40
14884;DHT22;7534;50.762;7.000;2023-04-06T14:14:25;15.70;67.00
14884;DHT22;7534;50.762;7.000;2023-04-06T14:16:51;15.80;67.10
14884;DHT22;7534;50.762;7.000;2023-04-06T14:19:17;15.70;67.60
14884;DHT22;7534;50.762;7.000;2023-04-06T14:21:44;15.40;68.50
14884;DHT22;7534;50.762;7.000;2023-04-06T14:24:11;15.20;68.90
14884;DHT22;7534;50.762;7.000;2023-04-06T14:26:39;14.90;71.00
14884;DHT22;7534;50.762;7.000;2023-04-06T14:29:07;14.60;71.30
14884;DHT22;7534;50.762;7.000;2023-04-06T14:31:33;14.50;74.60
14884;DHT22;7534;50.762;7.000;2023-04-06T14:34:02;14.50;74.70
14884;DHT22;7534;50.762;7.000;2023-04-06T14:36:30;14.50;77.50
14884;DHT22;7534;50.762;7.000;2023-04-06T14:39:03;14.50;77.60
14884;DHT22;7534;50.762;7.000;2023-04-06T14:41:30;14.30;78.20
14884;DHT22;7534;50.762;7.000;2023-04-06T14:43:57;14.30;81.20
14884;DHT22;7534;50.762;7.000;2023-04-06T14:46:23;14.30;82.50
14884;DHT22;7534;50.762;7.000;2023-04-06T14:48:49;14.20;87.10
14884;DHT22;7534;50.762;7.000;2023-04-06T14:51:16;13.60;88.10
14884;DHT22;7534;50.762;7.000;2023-04-06T14:53:42;13.20;90.90
14884;DHT22;7534;50.762;7.000;2023-04-06T14:56:08;13.00;93.00
14884;DHT22;7534;50.762;7.000;2023-04-06T14:58:34;12.80;92.40
14884;DHT22;7534;50.762;7.000;2023-04-06T15:01:01;12.60;93.50
14884;DHT22;7534;50.762;7.000;2023-04-06T15:03:27;12.40;93.70
14884;DHT22;7534;50.762;7.000;2023-04-06T15:05:56;12.40;95.00
14884;DHT22;7534;50.762;7.000;2023-04-06T15:08:23;12.50;95.00
14884;DHT22;7534;50.762;7.000;2023-04-06T15:10:52;12.40;94.60
14884;DHT22;7534;50.762;7.000;2023-04-06T15:13:19;12.40;95.50
14884;DHT22;7534;50.762;7.000;2023-04-06T15:15:45;12.40;95.40
14884;DHT22;7534;50.762;7.000;2023-04-06T15:18:12;12.40;96.10
14884;DHT22;7534;50.762;7.000;2023-04-06T15:20:38;12.20;96.50
14884;DHT22;7534;50.762;7.000;2023-04-06T15:23:04;12.20;97.70
14884;DHT22;7534;50.762;7.000;2023-04-06T15:25:30;12.00;97.70
14884;DHT22;7534;50.762;7.000;2023-04-06T15:27:56;11.80;99.10
14884;DHT22;7534;50.762;7.000;2023-04-06T15:30:22;11.70;98.80
14884;DHT22;7534;50.762;7.000;2023-04-06T15:33:00;11.70;99.70
14884;DHT22;7534;50.762;7.000;2023-04-06T15:35:33;11.60;99.90
14884;DHT22;7534;50.762;7.000;2023-04-06T15:38:05;11.60;99.90
14884;DHT22;7534;50.762;7.000;2023-04-06T15:40:32;11.30;99.90
14884;DHT22;7534;50.762;7.000;2023-04-06T15:43:03;11.30;99.90
14884;DHT22;7534;50.762;7.000;2023-04-06T15:45:29;11.20;99.90
14884;DHT22;7534;50.762;7.000;2023-04-06T15:48:00;11.00;99.90
14884;DHT22;7534;50.762;7.000;2023-04-06T15:50:26;10.90;99.90
14884;DHT22;7534;50.762;7.000;2023-04-06T15:52:53;10.80;99.90
14884;DHT22;7534;50.762;7.000;2023-04-06T15:55:18;10.80;99.90